sensor_id;sensor_type;location;lat;lon;timestamp;P1;durP1;ratioP1;P2;durP2;ratioP2
41309;SDS011;27057;51.438;-0.010;2023-08-01T00:01:52;23.85;;;4.65;;
41309;SDS011;27057;51.438;-0.010;2023-08-01T00:04:23;18.08;;;4.53;;
41309;SDS011;27057;51.438;-0.010;2023-08-01T00:06:50;14.48;;;2.88;;
41309;SDS011;27057;51.438;-0.010;2023-08-01T00:09:18;11.25;;;3.53;;
41309;SDS011;27057;51.438;-0.010;2023-08-01T00:11:46;17.40;;;4.90;;
41309;SDS011;27057;51.438;-0.010;2023-08-01T00:14:14;17.83;;;6.30;;
41309;SDS011;27057;51.438;-0.010;2023-08-01T00:16:53;26.55;;;4.90;;
41309;SDS011;27057;51.438;-0.010;2023-08-01T00:19:21;13.65;;;4.07;;
41309;SDS011;27057;51.438;-0.010;2023-08-01T00:21:49;20.20;;;4.43;;
41309;SDS011;27057;51.438;-0.010;2023-08-01T00:24:17;18.15;;;4.80;;
41309;SDS011;27057;51.438;-0.010;2023-08-01T00:26:44;13.48;;;3.70;;
41309;SDS011;27057;51.438;-0.010;2023-08-01T00:29:15;16.67;;;4.43;;
41309;SDS011;27057;51.438;-0.010;2023-08-01T00:31:43;19.65;;;4.45;;
41309;SDS011;27057;51.438;-0.010;2023-08-01T00:34:11;16.10;;;5.05;;
41309;SDS011;27057;51.438;-0.010;2023-08-01T00:36:50;16.10;;;4.18;;
41309;SDS011;27057;51.438;-0.010;2023-08-01T00:39:18;21.30;;;3.55;;
41309;SDS011;27057;51.438;-0.010;2023-08-01T00:41:48;18.50;;;4.97;;
41309;SDS011;27057;51.438;-0.010;2023-08-01T00:44:16;15.82;;;4.00;;
41309;SDS011;27057;51.438;-0.010;2023-08-01T00:46:44;24.30;;;6.05;;
41309;SDS011;27057;51.438;-0.010;2023-08-01T00:49:13;12.48;;;4.30;;
41309;SDS011;27057;51.438;-0.010;2023-08-01T00:51:44;20.85;;;5.20;;
41309;SDS011;27057;51.438;-0.010;2023-08-01T00:54:30;18.70;;;5.72;;
41309;SDS011;27057;51.438;-0.010;2023-08-01T00:57:03;27.85;;;5.05;;
41309;SDS011;27057;51.438;-0.010;2023-08-01T00:59:34;15.90;;;4.35;;
41309;SDS011;27057;51.438;-0.010;2023-08-01T01:02:02;20.13;;;4.80;;
41309;SDS011;27057;51.438;-0.010;2023-08-01T01:04:39;26.45;;;5.65;;
41309;SDS011;27057;51.438;-0.010;2023-08-01T01:07:16;21.40;;;4.93;;
41309;SDS011;27057;51.438;-0.010;2023-08-01T01:09:44;33.03;;;5.40;;
41309;SDS011;27057;51.438;-0.010;2023-08-01T01:12:12;23.17;;;4.70;;
41309;SDS011;27057;51.438;-0.010;2023-08-01T01:14:43;11.55;;;3.80;;
41309;SDS011;27057;51.438;-0.010;2023-08-01T01:17:11;10.18;;;3.45;;
41309;SDS011;27057;51.438;-0.010;2023-08-01T01:19:39;17.00;;;5.18;;
41309;SDS011;27057;51.438;-0.010;2023-08-01T01:22:13;30.17;;;5.85;;
41309;SDS011;27057;51.438;-0.010;2023-08-01T01:24:48;28.25;;;7.22;;
41309;SDS011;27057;51.438;-0.010;2023-08-01T01:27:19;20.48;;;5.28;;
41309;SDS011;27057;51.438;-0.010;2023-08-01T01:30:05;26.58;;;5.18;;
41309;SDS011;27057;51.438;-0.010;2023-08-01T01:32:34;23.33;;;5.40;;
41309;SDS011;27057;51.438;-0.010;2023-08-01T01:35:05;25.20;;;5.43;;
41309;SDS011;27057;51.438;-0.010;2023-08-01T01:40:14;27.13;;;5.35;;
41309;SDS011;27057;51.438;-0.010;2023-08-01T01:42:45;18.02;;;3.90;;
41309;SDS011;27057;51.438;-0.010;2023-08-01T01:45:19;16.40;;;4.85;;
41309;SDS011;27057;51.438;-0.010;2023-08-01T01:47:47;16.77;;;3.35;;
41309;SDS011;27057;51.438;-0.010;2023-08-01T01:50:17;23.85;;;5.55;;
41309;SDS011;27057;51.438;-0.010;2023-08-01T01:52:45;14.98;;;3.78;;
41309;SDS011;27057;51.438;-0.010;2023-08-01T01:55:21;24.38;;;4.75;;
41309;SDS011;27057;51.438;-0.010;2023-08-01T01:57:49;25.92;;;5.88;;
41309;SDS011;27057;51.438;-0.010;2023-08-01T02:00:17;12.48;;;3.88;;
41309;SDS011;27057;51.438;-0.010;2023-08-01T02:02:45;13.50;;;4.43;;
41309;SDS011;27057;51.438;-0.010;2023-08-01T02:05:15;18.95;;;6.60;;
41309;SDS011;27057;51.438;-0.010;2023-08-01T02:07:42;11.82;;;4.00;;
41309;SDS011;27057;51.438;-0.010;2023-08-01T02:10:09;15.10;;;3.58;;
41309;SDS011;27057;51.438;-0.010;2023-08-01T02:12:37;12.65;;;4.53;;
41309;SDS011;27057;51.438;-0.010;2023-08-01T02:15:04;18.85;;;4.05;;
41309;SDS011;27057;51.438;-0.010;2023-08-01T02:17:32;16.25;;;4.25;;
41309;SDS011;27057;51.438;-0.010;2023-08-01T02:20:00;16.80;;;5.88;;
41309;SDS011;27057;51.438;-0.010;2023-08-01T02:22:27;16.75;;;4.22;;
41309;SDS011;27057;51.438;-0.010;2023-08-01T02:24:54;19.95;;;4.75;;
41309;SDS011;27057;51.438;-0.010;2023-08-01T02:27:22;16.33;;;4.65;;
41309;SDS011;27057;51.438;-0.010;2023-08-01T02:29:49;21.52;;;4.60;;
41309;SDS011;27057;51.438;-0.010;2023-08-01T02:32:17;14.45;;;4.03;;
41309;SDS011;27057;51.438;-0.010;2023-08-01T02:34:45;18.67;;;2.50;;
41309;SDS011;27057;51.438;-0.010;2023-08-01T02:37:12;28.90;;;6.78;;
41309;SDS011;27057;51.438;-0.010;2023-08-01T02:39:39;15.38;;;4.70;;
41309;SDS011;27057;51.438;-0.010;2023-08-01T02:42:07;23.27;;;5.60;;
41309;SDS011;27057;51.438;-0.010;2023-08-01T02:44:35;16.48;;;5.22;;
41309;SDS011;27057;51.438;-0.010;2023-08-01T02:47:02;19.02;;;4.50;;
41309;SDS011;27057;51.438;-0.010;2023-08-01T02:49:30;19.52;;;4.32;;
41309;SDS011;27057;51.438;-0.010;2023-08-01T02:51:58;19.02;;;4.45;;
41309;SDS011;27057;51.438;-0.010;2023-08-01T02:54:26;28.05;;;5.78;;
41309;SDS011;27057;51.438;-0.010;2023-08-01T02:56:53;26.40;;;6.57;;
41309;SDS011;27057;51.438;-0.010;2023-08-01T02:59:21;22.02;;;5.13;;
41309;SDS011;27057;51.438;-0.010;2023-08-01T03:01:48;21.00;;;5.03;;
41309;SDS011;27057;51.438;-0.010;2023-08-01T03:04:15;19.58;;;3.60;;
41309;SDS011;27057;51.438;-0.010;2023-08-01T03:06:43;24.55;;;5.35;;
41309;SDS011;27057;51.438;-0.010;2023-08-01T03:09:10;25.73;;;5.60;;
41309;SDS011;27057;51.438;-0.010;2023-08-01T03:11:38;19.88;;;4.97;;
41309;SDS011;27057;51.438;-0.010;2023-08-01T03:14:05;19.58;;;5.05;;
41309;SDS011;27057;51.438;-0.010;2023-08-01T03:16:32;18.52;;;3.83;;
41309;SDS011;27057;51.438;-0.010;2023-08-01T03:19:00;21.67;;;5.13;;
41309;SDS011;27057;51.438;-0.010;2023-08-01T03:21:32;14.65;;;5.45;;
41309;SDS011;27057;51.438;-0.010;2023-08-01T03:24:00;14.45;;;3.03;;
41309;SDS011;27057;51.438;-0.010;2023-08-01T03:26:28;13.13;;;4.43;;
41309;SDS011;27057;51.438;-0.010;2023-08-01T03:28:56;13.20;;;4.70;;
41309;SDS011;27057;51.438;-0.010;2023-08-01T03:31:23;22.92;;;5.72;;
41309;SDS011;27057;51.438;-0.010;2023-08-01T03:33:50;23.80;;;5.93;;
41309;SDS011;27057;51.438;-0.010;2023-08-01T03:36:18;19.58;;;5.55;;
41309;SDS011;27057;51.438;-0.010;2023-08-01T03:38:45;23.85;;;5.63;;
41309;SDS011;27057;51.438;-0.010;2023-08-01T03:41:13;24.63;;;5.88;;
41309;SDS011;27057;51.438;-0.010;2023-08-01T03:43:40;25.75;;;5.72;;
41309;SDS011;27057;51.438;-0.010;2023-08-01T03:46:09;20.98;;;5.90;;
41309;SDS011;27057;51.438;-0.010;2023-08-01T03:48:36;22.55;;;4.70;;
41309;SDS011;27057;51.438;-0.010;2023-08-01T03:51:04;23.45;;;5.55;;
41309;SDS011;27057;51.438;-0.010;2023-08-01T03:53:31;14.57;;;4.53;;
41309;SDS011;27057;51.438;-0.010;2023-08-01T03:55:58;27.55;;;5.13;;
41309;SDS011;27057;51.438;-0.010;2023-08-01T03:58:26;22.92;;;4.88;;
41309;SDS011;27057;51.438;-0.010;2023-08-01T04:00:53;15.55;;;3.03;;
41309;SDS011;27057;51.438;-0.010;2023-08-01T04:03:21;21.55;;;4.93;;
41309;SDS011;27057;51.438;-0.010;2023-08-01T04:05:48;27.30;;;5.30;;
41309;SDS011;27057;51.438;-0.010;2023-08-01T04:08:16;20.77;;;6.70;;
41309;SDS011;27057;51.438;-0.010;2023-08-01T04:10:43;14.55;;;3.92;;
41309;SDS011;27057;51.438;-0.010;2023-08-01T04:13:10;24.75;;;4.47;;
41309;SDS011;27057;51.438;-0.010;2023-08-01T04:15:38;17.40;;;3.33;;
41309;SDS011;27057;51.438;-0.010;2023-08-01T04:18:05;7.28;;;3.60;;
41309;SDS011;27057;51.438;-0.010;2023-08-01T04:20:32;27.67;;;6.57;;
41309;SDS011;27057;51.438;-0.010;2023-08-01T04:23:00;15.25;;;3.78;;
41309;SDS011;27057;51.438;-0.010;2023-08-01T04:25:27;12.13;;;3.40;;
41309;SDS011;27057;51.438;-0.010;2023-08-01T04:27:55;15.35;;;3.42;;
41309;SDS011;27057;51.438;-0.010;2023-08-01T04:30:22;17.52;;;4.78;;
41309;SDS011;27057;51.438;-0.010;2023-08-01T04:32:49;22.45;;;5.03;;
41309;SDS011;27057;51.438;-0.010;2023-08-01T04:35:17;31.55;;;5.50;;
41309;SDS011;27057;51.438;-0.010;2023-08-01T04:37:44;17.52;;;4.93;;
41309;SDS011;27057;51.438;-0.010;2023-08-01T04:40:12;25.98;;;4.65;;
41309;SDS011;27057;51.438;-0.010;2023-08-01T04:42:39;8.88;;;2.72;;
41309;SDS011;27057;51.438;-0.010;2023-08-01T04:45:06;27.63;;;5.80;;
41309;SDS011;27057;51.438;-0.010;2023-08-01T04:47:35;15.57;;;4.43;;
41309;SDS011;27057;51.438;-0.010;2023-08-01T04:50:02;28.45;;;5.05;;
41309;SDS011;27057;51.438;-0.010;2023-08-01T04:52:30;17.17;;;3.47;;
41309;SDS011;27057;51.438;-0.010;2023-08-01T04:54:57;13.52;;;3.03;;
41309;SDS011;27057;51.438;-0.010;2023-08-01T04:57:24;25.08;;;4.25;;
41309;SDS011;27057;51.438;-0.010;2023-08-01T04:59:52;11.07;;;2.85;;
41309;SDS011;27057;51.438;-0.010;2023-08-01T05:02:19;21.05;;;4.93;;
41309;SDS011;27057;51.438;-0.010;2023-08-01T05:04:47;16.13;;;4.30;;
41309;SDS011;27057;51.438;-0.010;2023-08-01T05:07:14;18.42;;;4.60;;
41309;SDS011;27057;51.438;-0.010;2023-08-01T05:09:41;23.75;;;5.47;;
41309;SDS011;27057;51.438;-0.010;2023-08-01T05:12:09;18.20;;;4.18;;
41309;SDS011;27057;51.438;-0.010;2023-08-01T05:14:36;12.48;;;3.90;;
41309;SDS011;27057;51.438;-0.010;2023-08-01T05:17:04;15.65;;;4.13;;
41309;SDS011;27057;51.438;-0.010;2023-08-01T05:19:31;20.92;;;4.93;;
41309;SDS011;27057;51.438;-0.010;2023-08-01T05:21:59;20.00;;;4.32;;
41309;SDS011;27057;51.438;-0.010;2023-08-01T05:24:26;16.80;;;3.38;;
41309;SDS011;27057;51.438;-0.010;2023-08-01T05:26:54;23.90;;;3.67;;
41309;SDS011;27057;51.438;-0.010;2023-08-01T05:29:21;20.42;;;3.97;;
41309;SDS011;27057;51.438;-0.010;2023-08-01T05:31:48;19.60;;;4.40;;
41309;SDS011;27057;51.438;-0.010;2023-08-01T05:34:16;17.27;;;3.75;;
41309;SDS011;27057;51.438;-0.010;2023-08-01T05:36:43;14.57;;;4.13;;
41309;SDS011;27057;51.438;-0.010;2023-08-01T05:39:11;17.17;;;4.05;;
41309;SDS011;27057;51.438;-0.010;2023-08-01T05:41:38;18.13;;;3.47;;
41309;SDS011;27057;51.438;-0.010;2023-08-01T05:44:05;17.08;;;4.88;;
41309;SDS011;27057;51.438;-0.010;2023-08-01T05:46:33;18.38;;;4.00;;
41309;SDS011;27057;51.438;-0.010;2023-08-01T05:49:00;18.48;;;4.38;;
41309;SDS011;27057;51.438;-0.010;2023-08-01T05:51:28;29.15;;;4.43;;
41309;SDS011;27057;51.438;-0.010;2023-08-01T05:53:55;20.73;;;4.72;;
41309;SDS011;27057;51.438;-0.010;2023-08-01T05:56:22;33.28;;;5.07;;
41309;SDS011;27057;51.438;-0.010;2023-08-01T05:58:50;16.55;;;3.28;;
41309;SDS011;27057;51.438;-0.010;2023-08-01T06:01:17;17.48;;;4.13;;
41309;SDS011;27057;51.438;-0.010;2023-08-01T06:03:46;17.90;;;3.67;;
41309;SDS011;27057;51.438;-0.010;2023-08-01T06:06:14;33.53;;;6.45;;
41309;SDS011;27057;51.438;-0.010;2023-08-01T06:08:41;17.10;;;4.30;;
41309;SDS011;27057;51.438;-0.010;2023-08-01T06:11:09;15.07;;;3.35;;
41309;SDS011;27057;51.438;-0.010;2023-08-01T06:13:36;20.75;;;3.83;;
41309;SDS011;27057;51.438;-0.010;2023-08-01T06:16:04;14.90;;;4.30;;
41309;SDS011;27057;51.438;-0.010;2023-08-01T06:18:31;18.48;;;4.35;;
41309;SDS011;27057;51.438;-0.010;2023-08-01T06:20:58;15.23;;;4.13;;
41309;SDS011;27057;51.438;-0.010;2023-08-01T06:23:26;19.88;;;2.95;;
41309;SDS011;27057;51.438;-0.010;2023-08-01T06:25:53;23.90;;;4.05;;
41309;SDS011;27057;51.438;-0.010;2023-08-01T06:28:20;19.70;;;3.20;;
41309;SDS011;27057;51.438;-0.010;2023-08-01T06:30:48;25.15;;;3.95;;
41309;SDS011;27057;51.438;-0.010;2023-08-01T06:33:15;19.17;;;4.43;;
41309;SDS011;27057;51.438;-0.010;2023-08-01T06:35:43;16.48;;;3.90;;
41309;SDS011;27057;51.438;-0.010;2023-08-01T06:38:10;14.73;;;3.53;;
41309;SDS011;27057;51.438;-0.010;2023-08-01T06:40:37;19.45;;;4.07;;
41309;SDS011;27057;51.438;-0.010;2023-08-01T06:43:04;22.30;;;3.90;;
41309;SDS011;27057;51.438;-0.010;2023-08-01T06:45:32;25.30;;;4.47;;
41309;SDS011;27057;51.438;-0.010;2023-08-01T06:47:59;17.17;;;3.75;;
41309;SDS011;27057;51.438;-0.010;2023-08-01T06:50:27;12.80;;;3.00;;
41309;SDS011;27057;51.438;-0.010;2023-08-01T06:52:54;22.23;;;3.67;;
41309;SDS011;27057;51.438;-0.010;2023-08-01T06:55:22;20.55;;;3.42;;
41309;SDS011;27057;51.438;-0.010;2023-08-01T06:57:49;15.73;;;3.83;;
41309;SDS011;27057;51.438;-0.010;2023-08-01T07:00:16;8.38;;;3.30;;
41309;SDS011;27057;51.438;-0.010;2023-08-01T07:02:44;21.52;;;3.53;;
41309;SDS011;27057;51.438;-0.010;2023-08-01T07:05:11;9.38;;;3.63;;
41309;SDS011;27057;51.438;-0.010;2023-08-01T07:07:39;4.93;;;1.55;;
41309;SDS011;27057;51.438;-0.010;2023-08-01T07:10:06;16.83;;;4.93;;
41309;SDS011;27057;51.438;-0.010;2023-08-01T07:12:34;19.33;;;3.30;;
41309;SDS011;27057;51.438;-0.010;2023-08-01T07:15:02;15.32;;;2.53;;
41309;SDS011;27057;51.438;-0.010;2023-08-01T07:17:29;18.33;;;3.40;;
41309;SDS011;27057;51.438;-0.010;2023-08-01T07:19:57;16.83;;;2.88;;
41309;SDS011;27057;51.438;-0.010;2023-08-01T07:22:24;12.90;;;3.40;;
41309;SDS011;27057;51.438;-0.010;2023-08-01T07:24:54;17.77;;;2.97;;
41309;SDS011;27057;51.438;-0.010;2023-08-01T07:27:22;13.00;;;3.63;;
41309;SDS011;27057;51.438;-0.010;2023-08-01T07:29:49;11.52;;;2.80;;
41309;SDS011;27057;51.438;-0.010;2023-08-01T07:32:17;12.18;;;2.22;;
41309;SDS011;27057;51.438;-0.010;2023-08-01T07:34:45;13.90;;;3.22;;
41309;SDS011;27057;51.438;-0.010;2023-08-01T07:37:12;15.57;;;2.80;;
41309;SDS011;27057;51.438;-0.010;2023-08-01T07:39:39;8.45;;;2.38;;
41309;SDS011;27057;51.438;-0.010;2023-08-01T07:42:07;23.92;;;3.42;;
41309;SDS011;27057;51.438;-0.010;2023-08-01T07:44:34;9.55;;;2.28;;
41309;SDS011;27057;51.438;-0.010;2023-08-01T07:47:01;14.70;;;2.67;;
41309;SDS011;27057;51.438;-0.010;2023-08-01T07:49:29;14.43;;;2.90;;
41309;SDS011;27057;51.438;-0.010;2023-08-01T07:51:56;8.05;;;1.80;;
41309;SDS011;27057;51.438;-0.010;2023-08-01T07:54:24;17.20;;;3.47;;
41309;SDS011;27057;51.438;-0.010;2023-08-01T07:56:51;9.75;;;2.00;;
41309;SDS011;27057;51.438;-0.010;2023-08-01T07:59:19;8.02;;;2.03;;
41309;SDS011;27057;51.438;-0.010;2023-08-01T08:01:46;16.63;;;2.53;;
41309;SDS011;27057;51.438;-0.010;2023-08-01T08:04:14;10.15;;;2.03;;
41309;SDS011;27057;51.438;-0.010;2023-08-01T08:06:41;20.00;;;2.60;;
41309;SDS011;27057;51.438;-0.010;2023-08-01T08:09:09;13.13;;;2.55;;
41309;SDS011;27057;51.438;-0.010;2023-08-01T08:11:37;8.80;;;2.05;;
41309;SDS011;27057;51.438;-0.010;2023-08-01T08:14:04;8.27;;;1.38;;
41309;SDS011;27057;51.438;-0.010;2023-08-01T08:16:32;11.07;;;2.10;;
41309;SDS011;27057;51.438;-0.010;2023-08-01T08:18:59;13.68;;;2.15;;
41309;SDS011;27057;51.438;-0.010;2023-08-01T08:21:26;10.95;;;1.92;;
41309;SDS011;27057;51.438;-0.010;2023-08-01T08:23:54;9.27;;;2.10;;
41309;SDS011;27057;51.438;-0.010;2023-08-01T08:26:22;9.88;;;1.83;;
41309;SDS011;27057;51.438;-0.010;2023-08-01T08:28:50;7.38;;;1.52;;
41309;SDS011;27057;51.438;-0.010;2023-08-01T08:31:18;8.75;;;2.08;;
41309;SDS011;27057;51.438;-0.010;2023-08-01T08:33:45;9.20;;;2.13;;
41309;SDS011;27057;51.438;-0.010;2023-08-01T08:36:12;12.93;;;2.35;;
41309;SDS011;27057;51.438;-0.010;2023-08-01T08:38:40;12.80;;;2.60;;
41309;SDS011;27057;51.438;-0.010;2023-08-01T08:41:11;12.13;;;1.90;;
41309;SDS011;27057;51.438;-0.010;2023-08-01T08:43:42;12.00;;;1.98;;
41309;SDS011;27057;51.438;-0.010;2023-08-01T08:46:09;7.45;;;2.30;;
41309;SDS011;27057;51.438;-0.010;2023-08-01T08:48:39;17.95;;;2.30;;
41309;SDS011;27057;51.438;-0.010;2023-08-01T08:51:08;7.13;;;1.50;;
41309;SDS011;27057;51.438;-0.010;2023-08-01T08:53:36;7.90;;;1.70;;
41309;SDS011;27057;51.438;-0.010;2023-08-01T08:56:07;6.03;;;2.65;;
41309;SDS011;27057;51.438;-0.010;2023-08-01T08:58:36;8.50;;;1.63;;
41309;SDS011;27057;51.438;-0.010;2023-08-01T09:01:06;10.10;;;1.67;;
41309;SDS011;27057;51.438;-0.010;2023-08-01T09:03:35;5.97;;;1.77;;
41309;SDS011;27057;51.438;-0.010;2023-08-01T09:06:13;5.43;;;1.30;;
41309;SDS011;27057;51.438;-0.010;2023-08-01T09:11:50;5.00;;;1.20;;
41309;SDS011;27057;51.438;-0.010;2023-08-01T09:14:19;4.72;;;1.10;;
41309;SDS011;27057;51.438;-0.010;2023-08-01T09:16:46;4.95;;;1.50;;
41309;SDS011;27057;51.438;-0.010;2023-08-01T09:19:18;5.40;;;1.40;;
41309;SDS011;27057;51.438;-0.010;2023-08-01T09:21:46;4.18;;;1.15;;
41309;SDS011;27057;51.438;-0.010;2023-08-01T09:24:15;8.20;;;1.67;;
41309;SDS011;27057;51.438;-0.010;2023-08-01T09:26:46;5.53;;;1.42;;
41309;SDS011;27057;51.438;-0.010;2023-08-01T09:29:15;8.77;;;1.58;;
41309;SDS011;27057;51.438;-0.010;2023-08-01T09:31:44;5.65;;;1.05;;
41309;SDS011;27057;51.438;-0.010;2023-08-01T09:34:18;7.38;;;1.75;;
41309;SDS011;27057;51.438;-0.010;2023-08-01T09:36:46;5.75;;;1.30;;
41309;SDS011;27057;51.438;-0.010;2023-08-01T09:39:18;4.97;;;1.27;;
41309;SDS011;27057;51.438;-0.010;2023-08-01T09:41:54;6.65;;;1.40;;
41309;SDS011;27057;51.438;-0.010;2023-08-01T09:44:26;6.22;;;1.50;;
41309;SDS011;27057;51.438;-0.010;2023-08-01T09:46:58;10.52;;;1.52;;
41309;SDS011;27057;51.438;-0.010;2023-08-01T09:49:27;6.03;;;1.15;;
41309;SDS011;27057;51.438;-0.010;2023-08-01T09:51:55;9.10;;;1.75;;
41309;SDS011;27057;51.438;-0.010;2023-08-01T09:54:24;9.75;;;1.17;;
41309;SDS011;27057;51.438;-0.010;2023-08-01T09:56:52;6.35;;;1.17;;
41309;SDS011;27057;51.438;-0.010;2023-08-01T09:59:22;4.32;;;1.23;;
41309;SDS011;27057;51.438;-0.010;2023-08-01T10:01:51;8.27;;;1.60;;
41309;SDS011;27057;51.438;-0.010;2023-08-01T10:04:24;3.22;;;1.00;;
41309;SDS011;27057;51.438;-0.010;2023-08-01T10:06:59;10.45;;;1.98;;
41309;SDS011;27057;51.438;-0.010;2023-08-01T10:09:32;5.40;;;1.40;;
41309;SDS011;27057;51.438;-0.010;2023-08-01T10:12:02;4.93;;;1.45;;
41309;SDS011;27057;51.438;-0.010;2023-08-01T10:14:34;10.95;;;1.38;;
41309;SDS011;27057;51.438;-0.010;2023-08-01T10:17:02;7.43;;;1.35;;
41309;SDS011;27057;51.438;-0.010;2023-08-01T10:19:31;6.38;;;1.35;;
41309;SDS011;27057;51.438;-0.010;2023-08-01T10:22:02;6.38;;;1.77;;
41309;SDS011;27057;51.438;-0.010;2023-08-01T10:24:31;4.80;;;1.25;;
41309;SDS011;27057;51.438;-0.010;2023-08-01T10:27:18;3.67;;;1.17;;
41309;SDS011;27057;51.438;-0.010;2023-08-01T10:30:00;5.45;;;1.00;;
41309;SDS011;27057;51.438;-0.010;2023-08-01T10:35:01;6.10;;;1.40;;
41309;SDS011;27057;51.438;-0.010;2023-08-01T10:37:39;5.05;;;1.30;;
41309;SDS011;27057;51.438;-0.010;2023-08-01T10:40:08;3.38;;;1.25;;
41309;SDS011;27057;51.438;-0.010;2023-08-01T10:42:39;4.18;;;1.33;;
41309;SDS011;27057;51.438;-0.010;2023-08-01T10:45:16;5.63;;;1.60;;
41309;SDS011;27057;51.438;-0.010;2023-08-01T10:47:50;7.10;;;0.98;;
41309;SDS011;27057;51.438;-0.010;2023-08-01T10:50:18;5.55;;;1.30;;
41309;SDS011;27057;51.438;-0.010;2023-08-01T10:52:46;5.43;;;1.70;;
41309;SDS011;27057;51.438;-0.010;2023-08-01T10:55:13;3.35;;;1.25;;
41309;SDS011;27057;51.438;-0.010;2023-08-01T10:57:47;5.20;;;1.80;;
41309;SDS011;27057;51.438;-0.010;2023-08-01T11:00:16;3.42;;;1.35;;
41309;SDS011;27057;51.438;-0.010;2023-08-01T11:02:49;12.80;;;2.00;;
41309;SDS011;27057;51.438;-0.010;2023-08-01T11:05:20;8.75;;;1.50;;
41309;SDS011;27057;51.438;-0.010;2023-08-01T11:07:57;11.35;;;1.17;;
41309;SDS011;27057;51.438;-0.010;2023-08-01T11:10:29;4.82;;;1.45;;
41309;SDS011;27057;51.438;-0.010;2023-08-01T11:12:58;4.85;;;1.60;;
41309;SDS011;27057;51.438;-0.010;2023-08-01T11:15:26;5.90;;;1.48;;
41309;SDS011;27057;51.438;-0.010;2023-08-01T11:17:54;4.32;;;1.30;;
41309;SDS011;27057;51.438;-0.010;2023-08-01T11:20:23;3.63;;;1.55;;
41309;SDS011;27057;51.438;-0.010;2023-08-01T11:22:58;6.80;;;2.20;;
41309;SDS011;27057;51.438;-0.010;2023-08-01T11:25:32;6.57;;;1.35;;
41309;SDS011;27057;51.438;-0.010;2023-08-01T11:28:01;3.85;;;1.27;;
41309;SDS011;27057;51.438;-0.010;2023-08-01T11:30:32;4.18;;;1.20;;
41309;SDS011;27057;51.438;-0.010;2023-08-01T11:33:00;6.75;;;1.15;;
41309;SDS011;27057;51.438;-0.010;2023-08-01T11:35:29;1.55;;;0.77;;
41309;SDS011;27057;51.438;-0.010;2023-08-01T11:37:57;4.03;;;0.90;;
41309;SDS011;27057;51.438;-0.010;2023-08-01T11:40:25;3.50;;;0.90;;
41309;SDS011;27057;51.438;-0.010;2023-08-01T11:42:56;3.92;;;1.38;;
41309;SDS011;27057;51.438;-0.010;2023-08-01T11:45:24;3.85;;;1.13;;
41309;SDS011;27057;51.438;-0.010;2023-08-01T11:47:52;9.80;;;2.40;;
41309;SDS011;27057;51.438;-0.010;2023-08-01T11:50:23;5.57;;;1.50;;
41309;SDS011;27057;51.438;-0.010;2023-08-01T11:52:52;1.83;;;1.02;;
41309;SDS011;27057;51.438;-0.010;2023-08-01T11:55:26;4.13;;;0.80;;
41309;SDS011;27057;51.438;-0.010;2023-08-01T11:57:54;6.40;;;1.10;;
41309;SDS011;27057;51.438;-0.010;2023-08-01T12:00:26;8.07;;;1.58;;
41309;SDS011;27057;51.438;-0.010;2023-08-01T12:03:07;4.68;;;1.48;;
41309;SDS011;27057;51.438;-0.010;2023-08-01T12:08:13;4.00;;;1.50;;
41309;SDS011;27057;51.438;-0.010;2023-08-01T12:10:42;6.63;;;1.17;;
41309;SDS011;27057;51.438;-0.010;2023-08-01T12:13:22;4.45;;;1.80;;
41309;SDS011;27057;51.438;-0.010;2023-08-01T12:15:50;7.80;;;1.25;;
41309;SDS011;27057;51.438;-0.010;2023-08-01T12:18:29;3.90;;;1.33;;
41309;SDS011;27057;51.438;-0.010;2023-08-01T12:20:59;3.28;;;1.20;;
41309;SDS011;27057;51.438;-0.010;2023-08-01T12:23:27;4.20;;;1.30;;
41309;SDS011;27057;51.438;-0.010;2023-08-01T12:25:54;2.50;;;0.85;;
41309;SDS011;27057;51.438;-0.010;2023-08-01T12:28:23;4.88;;;1.20;;
41309;SDS011;27057;51.438;-0.010;2023-08-01T12:30:50;3.30;;;1.27;;
41309;SDS011;27057;51.438;-0.010;2023-08-01T12:33:18;3.70;;;1.13;;
41309;SDS011;27057;51.438;-0.010;2023-08-01T12:35:46;4.18;;;1.38;;
41309;SDS011;27057;51.438;-0.010;2023-08-01T12:38:13;2.05;;;1.00;;
41309;SDS011;27057;51.438;-0.010;2023-08-01T12:40:40;5.95;;;1.70;;
41309;SDS011;27057;51.438;-0.010;2023-08-01T12:43:08;5.30;;;1.33;;
41309;SDS011;27057;51.438;-0.010;2023-08-01T12:45:35;3.53;;;0.85;;
41309;SDS011;27057;51.438;-0.010;2023-08-01T12:48:03;3.10;;;1.15;;
41309;SDS011;27057;51.438;-0.010;2023-08-01T12:50:30;2.58;;;0.93;;
41309;SDS011;27057;51.438;-0.010;2023-08-01T12:52:58;4.00;;;1.38;;
41309;SDS011;27057;51.438;-0.010;2023-08-01T12:55:25;8.27;;;1.30;;
41309;SDS011;27057;51.438;-0.010;2023-08-01T12:57:52;3.90;;;1.30;;
41309;SDS011;27057;51.438;-0.010;2023-08-01T13:00:20;10.23;;;1.67;;
41309;SDS011;27057;51.438;-0.010;2023-08-01T13:02:47;2.78;;;1.20;;
41309;SDS011;27057;51.438;-0.010;2023-08-01T13:05:16;7.47;;;1.55;;
41309;SDS011;27057;51.438;-0.010;2023-08-01T13:07:43;4.05;;;1.25;;
41309;SDS011;27057;51.438;-0.010;2023-08-01T13:10:11;4.03;;;1.30;;
41309;SDS011;27057;51.438;-0.010;2023-08-01T13:12:38;6.65;;;1.40;;
41309;SDS011;27057;51.438;-0.010;2023-08-01T13:15:06;8.52;;;1.92;;
41309;SDS011;27057;51.438;-0.010;2023-08-01T13:17:43;5.30;;;1.25;;
41309;SDS011;27057;51.438;-0.010;2023-08-01T13:20:11;6.28;;;1.60;;
41309;SDS011;27057;51.438;-0.010;2023-08-01T13:22:39;4.80;;;1.23;;
41309;SDS011;27057;51.438;-0.010;2023-08-01T13:25:06;4.40;;;1.58;;
41309;SDS011;27057;51.438;-0.010;2023-08-01T13:27:34;7.15;;;1.80;;
41309;SDS011;27057;51.438;-0.010;2023-08-01T13:30:02;7.38;;;1.45;;
41309;SDS011;27057;51.438;-0.010;2023-08-01T13:32:30;6.13;;;1.73;;
41309;SDS011;27057;51.438;-0.010;2023-08-01T13:34:57;2.38;;;1.20;;
41309;SDS011;27057;51.438;-0.010;2023-08-01T13:37:24;7.63;;;1.60;;
41309;SDS011;27057;51.438;-0.010;2023-08-01T13:39:52;6.35;;;1.75;;
41309;SDS011;27057;51.438;-0.010;2023-08-01T13:42:20;4.00;;;1.38;;
41309;SDS011;27057;51.438;-0.010;2023-08-01T13:44:47;3.65;;;1.70;;
41309;SDS011;27057;51.438;-0.010;2023-08-01T13:47:14;7.72;;;1.77;;
41309;SDS011;27057;51.438;-0.010;2023-08-01T13:49:42;13.95;;;2.47;;
41309;SDS011;27057;51.438;-0.010;2023-08-01T13:52:09;4.55;;;2.03;;
41309;SDS011;27057;51.438;-0.010;2023-08-01T13:54:36;6.03;;;1.83;;
41309;SDS011;27057;51.438;-0.010;2023-08-01T13:57:04;6.65;;;2.13;;
41309;SDS011;27057;51.438;-0.010;2023-08-01T13:59:31;6.57;;;1.88;;
41309;SDS011;27057;51.438;-0.010;2023-08-01T14:01:59;11.77;;;2.03;;
41309;SDS011;27057;51.438;-0.010;2023-08-01T14:04:26;3.88;;;1.60;;
41309;SDS011;27057;51.438;-0.010;2023-08-01T14:06:53;6.88;;;1.50;;
41309;SDS011;27057;51.438;-0.010;2023-08-01T14:09:22;8.13;;;1.90;;
41309;SDS011;27057;51.438;-0.010;2023-08-01T14:11:49;10.75;;;1.67;;
41309;SDS011;27057;51.438;-0.010;2023-08-01T14:14:16;6.10;;;1.90;;
41309;SDS011;27057;51.438;-0.010;2023-08-01T14:16:44;6.65;;;2.55;;
41309;SDS011;27057;51.438;-0.010;2023-08-01T14:19:11;3.20;;;1.45;;
41309;SDS011;27057;51.438;-0.010;2023-08-01T14:21:39;3.17;;;1.58;;
41309;SDS011;27057;51.438;-0.010;2023-08-01T14:24:06;3.08;;;1.10;;
41309;SDS011;27057;51.438;-0.010;2023-08-01T14:26:33;5.40;;;2.08;;
41309;SDS011;27057;51.438;-0.010;2023-08-01T14:29:01;4.90;;;1.90;;
41309;SDS011;27057;51.438;-0.010;2023-08-01T14:31:28;8.48;;;2.50;;
41309;SDS011;27057;51.438;-0.010;2023-08-01T14:33:56;5.85;;;2.10;;
41309;SDS011;27057;51.438;-0.010;2023-08-01T14:36:23;8.68;;;1.45;;
41309;SDS011;27057;51.438;-0.010;2023-08-01T14:38:51;12.30;;;2.22;;
41309;SDS011;27057;51.438;-0.010;2023-08-01T14:41:22;13.02;;;2.20;;
41309;SDS011;27057;51.438;-0.010;2023-08-01T14:43:56;5.07;;;1.85;;
41309;SDS011;27057;51.438;-0.010;2023-08-01T14:46:23;4.55;;;1.52;;